createdAt,value
2019-03-04T00:00:39.425Z,11.55
2019-03-04T00:04:45.927Z,11.57
2019-03-04T00:08:50.830Z,11.56
2019-03-04T00:12:55.724Z,11.53
2019-03-04T00:17:00.616Z,11.48
2019-03-04T00:21:05.512Z,11.44
2019-03-04T00:25:10.475Z,11.48
2019-03-04T00:29:15.371Z,11.53
2019-03-04T00:33:20.269Z,11.58
2019-03-04T00:37:25.155Z,11.67
2019-03-04T00:41:30.051Z,11.77
2019-03-04T00:45:34.952Z,11.84
2019-03-04T00:49:39.852Z,11.88
2019-03-04T00:53:44.754Z,11.89
2019-03-04T00:57:49.644Z,11.87
2019-03-04T01:01:54.544Z,11.85
2019-03-04T01:05:59.444Z,12.11
2019-03-04T01:10:07.486Z,12.26
2019-03-04T01:14:12.381Z,12.10
2019-03-04T01:18:17.269Z,12.02
2019-03-04T01:22:22.169Z,11.96
2019-03-04T01:26:27.070Z,11.86
2019-03-04T01:30:31.966Z,11.77
2019-03-04T01:34:36.866Z,11.71
2019-03-04T01:38:41.755Z,11.71
2019-03-04T01:42:46.723Z,11.76
2019-03-04T01:46:51.630Z,11.82
2019-03-04T01:50:56.514Z,11.81
2019-03-04T01:55:02.376Z,11.74
2019-03-04T01:59:08.256Z,11.74
2019-03-04T02:03:13.154Z,11.78
2019-03-04T02:07:18.054Z,11.73
2019-03-04T02:11:22.952Z,11.70
2019-03-04T02:15:27.846Z,11.71
2019-03-04T02:19:32.738Z,11.68
2019-03-04T02:23:37.722Z,11.70
2019-03-04T02:27:48.087Z,11.70
2019-03-04T02:31:52.992Z,11.71
2019-03-04T02:35:57.886Z,11.77
2019-03-04T02:40:04.031Z,11.77
2019-03-04T02:44:08.912Z,11.78
2019-03-04T02:48:13.814Z,11.80
2019-03-04T02:52:18.714Z,11.79
2019-03-04T02:56:23.611Z,11.78
2019-03-04T03:00:28.497Z,11.80
2019-03-04T03:04:33.401Z,11.80
2019-03-04T03:08:38.293Z,11.78
2019-03-04T03:12:43.259Z,11.76
2019-03-04T03:16:48.154Z,11.78
2019-03-04T03:20:53.035Z,12.71
2019-03-04T03:24:57.936Z,12.35
2019-03-04T03:29:02.851Z,12.09
2019-03-04T03:33:07.745Z,11.94
2019-03-04T03:37:12.646Z,11.88
2019-03-04T03:41:17.518Z,11.85
2019-03-04T03:45:22.423Z,11.85
2019-03-04T03:49:27.319Z,11.81
2019-03-04T03:53:32.213Z,11.78
2019-03-04T03:57:37.182Z,11.77
2019-03-04T04:01:42.066Z,11.80
2019-03-04T04:05:46.972Z,11.82
2019-03-04T04:09:51.864Z,11.87
2019-03-04T04:13:56.767Z,11.93
2019-03-04T04:18:01.679Z,11.94
2019-03-04T04:22:06.564Z,11.91
2019-03-04T04:26:23.434Z,11.93
2019-03-04T04:30:29.983Z,11.93
2019-03-04T04:34:34.875Z,11.89
2019-03-04T04:38:39.772Z,11.83
2019-03-04T04:42:44.656Z,11.78
2019-03-04T04:46:53.256Z,11.73
2019-03-04T04:50:58.156Z,11.64
2019-03-04T04:55:03.053Z,11.50
2019-03-04T04:59:07.956Z,11.40
2019-03-04T05:03:13.208Z,11.35
2019-03-04T05:07:18.108Z,11.32
2019-03-04T05:11:23.008Z,11.30
2019-03-04T05:15:27.911Z,11.29
2019-03-04T05:19:32.803Z,11.27
2019-03-04T05:23:37.988Z,11.21
2019-03-04T05:27:42.888Z,11.11
2019-03-04T05:31:47.834Z,11.01
2019-03-04T05:35:52.680Z,10.97
2019-03-04T05:39:57.583Z,10.91
2019-03-04T05:44:02.465Z,10.82
2019-03-04T05:48:07.775Z,10.69
2019-03-04T05:52:12.648Z,10.57
2019-03-04T05:56:17.536Z,10.50
2019-03-04T06:00:24.720Z,10.47
2019-03-04T06:04:30.676Z,10.40
2019-03-04T06:08:35.576Z,10.38
2019-03-04T06:12:40.477Z,10.40
2019-03-04T06:16:47.482Z,10.54
2019-03-04T06:20:51.973Z,10.67
2019-03-04T06:24:56.858Z,11.59
2019-03-04T06:29:01.755Z,12.03
2019-03-04T06:33:06.648Z,11.62
2019-03-04T06:37:11.545Z,11.28
2019-03-04T06:41:16.445Z,11.07
2019-03-04T06:45:21.594Z,11.01
2019-03-04T06:49:26.505Z,11.01
2019-03-04T06:53:46.605Z,10.99
2019-03-04T06:57:51.503Z,10.94
2019-03-04T07:02:21.495Z,10.93
2019-03-04T07:06:26.392Z,10.90
2019-03-04T07:10:31.282Z,10.86
2019-03-04T07:14:36.177Z,10.87
2019-03-04T07:18:41.076Z,10.87
2019-03-04T07:22:48.528Z,10.87
2019-03-04T07:26:53.890Z,10.88
2019-03-04T07:30:58.778Z,10.98
2019-03-04T07:35:04.259Z,11.15
2019-03-04T07:39:11.929Z,11.26
2019-03-04T07:43:16.825Z,11.28
2019-03-04T07:47:21.725Z,11.29
2019-03-04T07:51:26.621Z,11.37
2019-03-04T07:55:31.516Z,11.50
2019-03-04T07:59:36.415Z,11.50
2019-03-04T08:03:41.321Z,11.52
2019-03-04T08:07:49.364Z,11.62
2019-03-04T08:12:18.200Z,11.74
2019-03-04T08:16:23.101Z,11.78
2019-03-04T08:20:27.989Z,11.86
2019-03-04T08:24:32.896Z,12.02
2019-03-04T08:28:37.792Z,11.89
2019-03-04T08:32:42.692Z,11.58
2019-03-04T08:36:47.592Z,11.47
2019-03-04T08:40:52.477Z,11.43
2019-03-04T08:44:57.379Z,11.25
2019-03-04T08:49:02.274Z,10.89
2019-03-04T08:53:07.192Z,10.40
2019-03-04T08:57:12.077Z,10.16
2019-03-04T09:01:16.976Z,10.20
2019-03-04T09:05:21.881Z,10.31
2019-03-04T09:09:27.614Z,10.46
2019-03-04T09:13:32.521Z,10.48
2019-03-04T09:17:37.408Z,10.37
2019-03-04T09:21:42.308Z,10.28
2019-03-04T09:26:05.332Z,10.43
2019-03-04T09:30:12.739Z,10.69
2019-03-04T09:34:17.643Z,10.96
2019-03-04T09:38:22.540Z,11.06
2019-03-04T09:42:28.305Z,11.11
2019-03-04T09:46:33.228Z,11.14
2019-03-04T09:50:38.122Z,11.19
2019-03-04T09:54:43.035Z,11.18
2019-03-04T09:58:47.928Z,11.38
2019-03-04T10:03:05.017Z,11.48
2019-03-04T10:07:27.804Z,11.72
2019-03-04T10:12:00.049Z,11.87
2019-03-04T10:16:18.942Z,12.11
2019-03-04T10:20:35.641Z,12.29
2019-03-04T10:24:52.322Z,12.28
2019-03-04T10:29:02.219Z,12.14
2019-03-04T10:33:24.894Z,12.00
2019-03-04T10:37:38.521Z,11.94
2019-03-04T10:41:51.662Z,12.16
2019-03-04T10:46:17.589Z,12.41
2019-03-04T10:50:22.493Z,12.64
2019-03-04T10:54:27.386Z,12.83
2019-03-04T10:58:32.296Z,12.99
2019-03-04T11:02:37.194Z,13.14
2019-03-04T11:06:42.097Z,13.06
2019-03-04T11:10:46.988Z,12.97
2019-03-04T11:14:51.890Z,12.99
2019-03-04T11:18:56.800Z,12.82
2019-03-04T11:23:01.697Z,12.49
2019-03-04T11:27:06.662Z,12.52
2019-03-04T11:31:11.565Z,12.38
2019-03-04T11:35:16.451Z,12.02
2019-03-04T11:39:25.127Z,11.88
2019-03-04T11:43:30.500Z,11.85
2019-03-04T11:47:35.403Z,12.08
2019-03-04T11:51:40.307Z,12.13
2019-03-04T11:55:45.193Z,12.33
2019-03-04T11:59:50.084Z,12.32
2019-03-04T12:03:54.985Z,12.15
2019-03-04T12:07:59.887Z,12.05
2019-03-04T12:12:04.855Z,12.31
2019-03-04T12:16:09.741Z,12.39
2019-03-04T12:20:15.251Z,12.34
2019-03-04T12:24:20.148Z,12.51
2019-03-04T12:28:25.048Z,12.66
2019-03-04T12:32:31.756Z,12.82
2019-03-04T12:36:36.656Z,12.70
2019-03-04T12:40:41.550Z,12.59
2019-03-04T12:44:46.443Z,12.56
2019-03-04T12:48:51.345Z,12.35
2019-03-04T12:52:57.288Z,12.01
2019-03-04T12:57:02.180Z,11.69
2019-03-04T13:01:07.068Z,11.23
2019-03-04T13:05:13.806Z,10.64
2019-03-04T13:09:18.709Z,10.27
2019-03-04T13:13:23.607Z,10.23
2019-03-04T13:17:28.508Z,10.30
2019-03-04T13:21:33.407Z,10.24
2019-03-04T13:25:39.382Z,10.05
2019-03-04T13:29:44.272Z,9.99
2019-03-04T13:33:49.173Z,10.15
2019-03-04T13:37:54.076Z,10.35
2019-03-04T13:41:58.968Z,10.64
2019-03-04T13:46:03.866Z,10.81
2019-03-04T13:50:11.829Z,10.81
2019-03-04T13:54:16.726Z,10.56
2019-03-04T13:58:21.623Z,10.31
2019-03-04T14:02:26.514Z,10.16
2019-03-04T14:06:31.425Z,9.99
2019-03-04T14:10:40.994Z,9.89
2019-03-04T14:14:45.883Z,9.88
2019-03-04T14:18:50.772Z,9.81
2019-03-04T14:22:57.903Z,9.72
2019-03-04T14:27:02.248Z,9.70
2019-03-04T14:31:07.145Z,9.72
2019-03-04T14:35:12.486Z,9.70
2019-03-04T14:39:18.349Z,9.66
2019-03-04T14:43:23.236Z,9.54
2019-03-04T14:47:28.126Z,9.46
2019-03-04T14:51:33.018Z,9.15
2019-03-04T14:55:39.845Z,8.44
2019-03-04T14:59:44.739Z,8.13
2019-03-04T15:03:49.624Z,8.02
2019-03-04T15:07:55.690Z,8.00
2019-03-04T15:12:00.788Z,7.91
2019-03-04T15:16:08.458Z,7.84
2019-03-04T15:20:16.756Z,7.85
2019-03-04T15:24:21.639Z,7.87
2019-03-04T15:28:26.962Z,8.00
2019-03-04T15:32:31.856Z,8.16
2019-03-04T15:36:36.743Z,8.26
2019-03-04T15:40:41.628Z,8.24
2019-03-04T15:44:46.514Z,8.17
2019-03-04T15:48:51.410Z,8.08
2019-03-04T15:52:56.298Z,7.95
2019-03-04T15:57:02.441Z,7.85
2019-03-04T16:01:09.859Z,7.82
2019-03-04T16:05:16.665Z,7.85
2019-03-04T16:09:22.320Z,7.85
2019-03-04T16:13:27.277Z,7.79
2019-03-04T16:17:32.235Z,7.66
2019-03-04T16:21:37.127Z,7.55
2019-03-04T16:25:42.015Z,7.48
2019-03-04T16:29:46.918Z,7.42
2019-03-04T16:33:51.810Z,7.25
2019-03-04T16:37:56.698Z,7.20
2019-03-04T16:42:01.580Z,7.14
2019-03-04T16:46:06.458Z,8.07
2019-03-04T16:50:15.786Z,8.66
2019-03-04T16:54:20.681Z,8.35
2019-03-04T16:58:25.648Z,7.84
2019-03-04T17:02:30.528Z,7.50
2019-03-04T17:06:35.409Z,7.28
2019-03-04T17:10:40.371Z,7.14
2019-03-04T17:14:45.266Z,6.99
2019-03-04T17:18:50.157Z,6.93
2019-03-04T17:22:55.053Z,6.86
2019-03-04T17:26:59.930Z,6.81
2019-03-04T17:31:04.902Z,6.73
2019-03-04T17:35:12.128Z,6.71
2019-03-04T17:39:17.013Z,6.68
2019-03-04T17:43:21.914Z,6.67
2019-03-04T17:47:26.864Z,6.62
2019-03-04T17:51:31.751Z,6.58
2019-03-04T17:55:36.713Z,6.57
2019-03-04T17:59:41.977Z,6.54
2019-03-04T18:03:46.873Z,6.55
2019-03-04T18:07:51.829Z,6.53
2019-03-04T18:11:56.722Z,6.53
2019-03-04T18:16:01.617Z,6.52
2019-03-04T18:20:10.492Z,6.53
2019-03-04T18:24:15.389Z,6.54
2019-03-04T18:28:57.426Z,6.55
2019-03-04T18:33:20.197Z,6.56
2019-03-04T18:37:42.877Z,6.53
2019-03-04T18:41:56.616Z,6.50
2019-03-04T18:46:19.808Z,6.52
2019-03-04T18:50:24.706Z,6.52
2019-03-04T18:54:29.591Z,6.52
2019-03-04T18:58:34.471Z,6.51
2019-03-04T19:02:39.365Z,6.51
2019-03-04T19:06:44.263Z,6.50
2019-03-04T19:10:49.237Z,6.50
2019-03-04T19:14:54.128Z,6.46
2019-03-04T19:18:59.013Z,6.49
2019-03-04T19:23:03.952Z,6.53
2019-03-04T19:27:08.783Z,6.55
2019-03-04T19:31:13.817Z,6.52
2019-03-04T19:35:18.714Z,6.50
2019-03-04T19:39:23.665Z,6.50
2019-03-04T19:43:32.806Z,6.52
2019-03-04T19:47:35.809Z,6.54
2019-03-04T19:51:40.698Z,6.50
2019-03-04T19:55:45.591Z,6.48
2019-03-04T19:59:50.469Z,6.49
2019-03-04T20:03:56.438Z,6.45
2019-03-04T20:08:01.600Z,6.40
2019-03-04T20:12:06.557Z,6.33
2019-03-04T20:16:11.597Z,6.23
2019-03-04T20:20:16.489Z,6.12
2019-03-04T20:24:22.446Z,5.98
2019-03-04T20:28:29.847Z,5.92
2019-03-04T20:32:34.741Z,5.88
2019-03-04T20:36:39.638Z,5.78
2019-03-04T20:40:44.586Z,5.70
2019-03-04T20:44:49.475Z,5.62
2019-03-04T20:48:54.375Z,5.57
2019-03-04T20:52:59.268Z,5.51
2019-03-04T20:57:04.162Z,5.43
2019-03-04T21:01:09.372Z,5.40
2019-03-04T21:05:15.321Z,5.35
2019-03-04T21:09:20.882Z,5.35
2019-03-04T21:13:34.977Z,5.33
2019-03-04T21:17:32.772Z,5.38
2019-03-04T21:21:38.004Z,5.69
2019-03-04T21:25:45.981Z,5.79
2019-03-04T21:29:56.953Z,5.78
2019-03-04T21:34:04.884Z,5.77
2019-03-04T21:38:09.942Z,5.76
2019-03-04T21:42:26.587Z,5.79
2019-03-04T21:46:49.392Z,5.88
2019-03-04T21:51:08.940Z,6.09
2019-03-04T21:55:19.471Z,6.25
2019-03-04T21:59:24.960Z,6.35
2019-03-04T22:03:30.300Z,6.38
2019-03-04T22:07:37.281Z,6.41
2019-03-04T22:11:41.897Z,6.43
2019-03-04T22:15:46.797Z,6.49
2019-03-04T22:19:51.683Z,6.50
2019-03-04T22:23:56.582Z,6.54
2019-03-04T22:28:01.455Z,6.57
2019-03-04T22:32:07.329Z,6.61
2019-03-04T22:36:12.202Z,6.57
2019-03-04T22:40:25.501Z,6.55
2019-03-04T22:44:30.391Z,6.54
2019-03-04T22:48:35.294Z,6.49
2019-03-04T22:52:40.180Z,6.43
2019-03-04T22:56:45.072Z,6.38
2019-03-04T23:00:57.347Z,6.36
2019-03-04T23:05:02.755Z,6.37
2019-03-04T23:09:12.956Z,6.29
2019-03-04T23:13:41.600Z,6.13
2019-03-04T23:17:46.488Z,6.02
2019-03-04T23:21:51.377Z,6.07
2019-03-04T23:25:56.566Z,6.13
2019-03-04T23:30:01.448Z,6.19
2019-03-04T23:34:06.322Z,6.24
2019-03-04T23:38:11.213Z,6.23
2019-03-04T23:42:16.107Z,6.77
2019-03-04T23:46:20.989Z,6.74
2019-03-04T23:50:25.886Z,6.65
2019-03-04T23:54:30.764Z,6.59
2019-03-04T23:58:35.651Z,6.52
